sensor_id;sensor_type;location;lat;lon;timestamp;P1;P2;P0
47591;PMS5003;33317;33.356;-117.184;2023-01-19T00:01:31;0;0;
47591;PMS5003;33317;33.356;-117.184;2023-01-19T00:03:59;0;0;
47591;PMS5003;33317;33.356;-117.184;2023-01-19T00:06:27;0;0;
47591;PMS5003;33317;33.356;-117.184;2023-01-19T00:08:56;0;0;
47591;PMS5003;33317;33.356;-117.184;2023-01-19T00:11:24;0;0;
47591;PMS5003;33317;33.356;-117.184;2023-01-19T00:13:53;1;1;
47591;PMS5003;33317;33.356;-117.184;2023-01-19T00:16:22;1;1;
47591;PMS5003;33317;33.356;-117.184;2023-01-19T00:18:55;0;0;
47591;PMS5003;33317;33.356;-117.184;2023-01-19T00:21:29;0;0;
47591;PMS5003;33317;33.356;-117.184;2023-01-19T00:23:57;1;0;
47591;PMS5003;33317;33.356;-117.184;2023-01-19T00:26:26;0;0;
47591;PMS5003;33317;33.356;-117.184;2023-01-19T00:28:59;2;1;
47591;PMS5003;33317;33.356;-117.184;2023-01-19T00:31:28;2;1;
47591;PMS5003;33317;33.356;-117.184;2023-01-19T00:33:56;0;0;
47591;PMS5003;33317;33.356;-117.184;2023-01-19T00:36:24;1;1;
47591;PMS5003;33317;33.356;-117.184;2023-01-19T00:38:53;1;1;
47591;PMS5003;33317;33.356;-117.184;2023-01-19T00:41:22;1;1;
47591;PMS5003;33317;33.356;-117.184;2023-01-19T00:43:51;0;0;
47591;PMS5003;33317;33.356;-117.184;2023-01-19T00:46:19;1;1;
47591;PMS5003;33317;33.356;-117.184;2023-01-19T00:48:48;0;0;
47591;PMS5003;33317;33.356;-117.184;2023-01-19T00:51:16;1;1;
47591;PMS5003;33317;33.356;-117.184;2023-01-19T00:53:45;1;1;
47591;PMS5003;33317;33.356;-117.184;2023-01-19T00:56:13;0;0;
47591;PMS5003;33317;33.356;-117.184;2023-01-19T00:58:42;0;0;
47591;PMS5003;33317;33.356;-117.184;2023-01-19T01:01:10;0;0;
47591;PMS5003;33317;33.356;-117.184;2023-01-19T01:03:38;0;0;
47591;PMS5003;33317;33.356;-117.184;2023-01-19T01:06:07;0;0;
47591;PMS5003;33317;33.356;-117.184;2023-01-19T01:08:35;1;1;
47591;PMS5003;33317;33.356;-117.184;2023-01-19T01:11:04;0;0;
47591;PMS5003;33317;33.356;-117.184;2023-01-19T01:13:32;0;0;
47591;PMS5003;33317;33.356;-117.184;2023-01-19T01:16:00;0;0;
47591;PMS5003;33317;33.356;-117.184;2023-01-19T01:18:30;0;0;
47591;PMS5003;33317;33.356;-117.184;2023-01-19T01:21:00;0;0;
47591;PMS5003;33317;33.356;-117.184;2023-01-19T01:23:29;0;0;
47591;PMS5003;33317;33.356;-117.184;2023-01-19T01:26:03;0;0;
47591;PMS5003;33317;33.356;-117.184;2023-01-19T01:28:32;0;0;
47591;PMS5003;33317;33.356;-117.184;2023-01-19T01:31:01;0;0;
47591;PMS5003;33317;33.356;-117.184;2023-01-19T01:33:30;1;1;
47591;PMS5003;33317;33.356;-117.184;2023-01-19T01:35:58;0;0;
47591;PMS5003;33317;33.356;-117.184;2023-01-19T01:38:26;1;1;
47591;PMS5003;33317;33.356;-117.184;2023-01-19T01:40:55;0;0;
47591;PMS5003;33317;33.356;-117.184;2023-01-19T01:43:40;0;0;
47591;PMS5003;33317;33.356;-117.184;2023-01-19T01:46:12;0;0;
47591;PMS5003;33317;33.356;-117.184;2023-01-19T01:48:43;1;0;
47591;PMS5003;33317;33.356;-117.184;2023-01-19T01:51:27;0;0;
47591;PMS5003;33317;33.356;-117.184;2023-01-19T01:54:01;1;1;
47591;PMS5003;33317;33.356;-117.184;2023-01-19T01:56:40;0;0;
47591;PMS5003;33317;33.356;-117.184;2023-01-19T01:59:12;1;1;
47591;PMS5003;33317;33.356;-117.184;2023-01-19T02:01:45;2;2;
47591;PMS5003;33317;33.356;-117.184;2023-01-19T02:04:13;0;0;
47591;PMS5003;33317;33.356;-117.184;2023-01-19T02:06:41;1;1;
47591;PMS5003;33317;33.356;-117.184;2023-01-19T02:09:09;2;2;
47591;PMS5003;33317;33.356;-117.184;2023-01-19T02:11:38;5;3;
47591;PMS5003;33317;33.356;-117.184;2023-01-19T02:14:09;7;6;
47591;PMS5003;33317;33.356;-117.184;2023-01-19T02:16:37;5;5;
47591;PMS5003;33317;33.356;-117.184;2023-01-19T02:19:11;5;5;
47591;PMS5003;33317;33.356;-117.184;2023-01-19T02:21:45;12;11;
47591;PMS5003;33317;33.356;-117.184;2023-01-19T02:24:20;14;12;
47591;PMS5003;33317;33.356;-117.184;2023-01-19T02:26:49;12;11;
47591;PMS5003;33317;33.356;-117.184;2023-01-19T02:29:24;13;13;
47591;PMS5003;33317;33.356;-117.184;2023-01-19T02:31:54;16;13;
47591;PMS5003;33317;33.356;-117.184;2023-01-19T02:34:23;15;11;
47591;PMS5003;33317;33.356;-117.184;2023-01-19T02:36:53;14;11;
47591;PMS5003;33317;33.356;-117.184;2023-01-19T02:39:25;13;13;
47591;PMS5003;33317;33.356;-117.184;2023-01-19T02:42:03;16;14;
47591;PMS5003;33317;33.356;-117.184;2023-01-19T02:44:41;9;9;
47591;PMS5003;33317;33.356;-117.184;2023-01-19T02:47:13;13;13;
47591;PMS5003;33317;33.356;-117.184;2023-01-19T02:49:42;16;14;
47591;PMS5003;33317;33.356;-117.184;2023-01-19T02:52:27;12;10;
47591;PMS5003;33317;33.356;-117.184;2023-01-19T02:55:01;11;9;
47591;PMS5003;33317;33.356;-117.184;2023-01-19T02:57:39;21;18;
47591;PMS5003;33317;33.356;-117.184;2023-01-19T03:00:25;14;14;
47591;PMS5003;33317;33.356;-117.184;2023-01-19T03:03:08;17;15;
47591;PMS5003;33317;33.356;-117.184;2023-01-19T03:05:52;16;13;
47591;PMS5003;33317;33.356;-117.184;2023-01-19T03:08:31;26;20;
47591;PMS5003;33317;33.356;-117.184;2023-01-19T03:11:10;17;16;
47591;PMS5003;33317;33.356;-117.184;2023-01-19T03:13:41;15;14;
47591;PMS5003;33317;33.356;-117.184;2023-01-19T03:16:20;13;11;
47591;PMS5003;33317;33.356;-117.184;2023-01-19T03:18:53;15;13;
47591;PMS5003;33317;33.356;-117.184;2023-01-19T03:21:32;11;11;
47591;PMS5003;33317;33.356;-117.184;2023-01-19T03:24:04;17;14;
47591;PMS5003;33317;33.356;-117.184;2023-01-19T03:26:37;14;13;
47591;PMS5003;33317;33.356;-117.184;2023-01-19T03:29:15;16;12;
47591;PMS5003;33317;33.356;-117.184;2023-01-19T03:31:48;15;13;
47591;PMS5003;33317;33.356;-117.184;2023-01-19T03:34:24;11;11;
47591;PMS5003;33317;33.356;-117.184;2023-01-19T03:36:55;13;11;
47591;PMS5003;33317;33.356;-117.184;2023-01-19T03:39:31;14;12;
47591;PMS5003;33317;33.356;-117.184;2023-01-19T03:42:07;13;13;
47591;PMS5003;33317;33.356;-117.184;2023-01-19T03:44:45;13;13;
47591;PMS5003;33317;33.356;-117.184;2023-01-19T03:47:19;14;12;
47591;PMS5003;33317;33.356;-117.184;2023-01-19T03:49:54;16;13;
47591;PMS5003;33317;33.356;-117.184;2023-01-19T03:52:31;14;12;
47591;PMS5003;33317;33.356;-117.184;2023-01-19T03:55:02;18;15;
47591;PMS5003;33317;33.356;-117.184;2023-01-19T03:57:32;16;15;
47591;PMS5003;33317;33.356;-117.184;2023-01-19T04:00:02;10;10;
47591;PMS5003;33317;33.356;-117.184;2023-01-19T04:02:35;14;12;
47591;PMS5003;33317;33.356;-117.184;2023-01-19T04:05:04;14;12;
47591;PMS5003;33317;33.356;-117.184;2023-01-19T04:07:34;14;11;
47591;PMS5003;33317;33.356;-117.184;2023-01-19T04:10:02;12;12;
47591;PMS5003;33317;33.356;-117.184;2023-01-19T04:12:33;19;17;
47591;PMS5003;33317;33.356;-117.184;2023-01-19T04:15:07;16;16;
47591;PMS5003;33317;33.356;-117.184;2023-01-19T04:17:37;17;14;
47591;PMS5003;33317;33.356;-117.184;2023-01-19T04:20:11;17;17;
47591;PMS5003;33317;33.356;-117.184;2023-01-19T04:22:48;12;11;
47591;PMS5003;33317;33.356;-117.184;2023-01-19T04:25:18;13;12;
47591;PMS5003;33317;33.356;-117.184;2023-01-19T04:28:00;13;13;
47591;PMS5003;33317;33.356;-117.184;2023-01-19T04:30:34;10;9;
47591;PMS5003;33317;33.356;-117.184;2023-01-19T04:33:08;13;12;
47591;PMS5003;33317;33.356;-117.184;2023-01-19T04:35:40;11;11;
47591;PMS5003;33317;33.356;-117.184;2023-01-19T04:38:08;12;12;
47591;PMS5003;33317;33.356;-117.184;2023-01-19T04:40:37;12;10;
47591;PMS5003;33317;33.356;-117.184;2023-01-19T04:43:12;9;9;
47591;PMS5003;33317;33.356;-117.184;2023-01-19T04:45:46;13;11;
47591;PMS5003;33317;33.356;-117.184;2023-01-19T04:48:16;11;10;
47591;PMS5003;33317;33.356;-117.184;2023-01-19T04:51:02;12;11;
47591;PMS5003;33317;33.356;-117.184;2023-01-19T04:53:35;9;9;
47591;PMS5003;33317;33.356;-117.184;2023-01-19T04:56:09;8;8;
47591;PMS5003;33317;33.356;-117.184;2023-01-19T04:58:37;10;8;
47591;PMS5003;33317;33.356;-117.184;2023-01-19T05:01:06;14;10;
47591;PMS5003;33317;33.356;-117.184;2023-01-19T05:03:36;12;11;
47591;PMS5003;33317;33.356;-117.184;2023-01-19T05:06:04;6;6;
47591;PMS5003;33317;33.356;-117.184;2023-01-19T05:08:38;9;7;
47591;PMS5003;33317;33.356;-117.184;2023-01-19T05:11:17;9;9;
47591;PMS5003;33317;33.356;-117.184;2023-01-19T05:13:46;12;12;
47591;PMS5003;33317;33.356;-117.184;2023-01-19T05:16:19;10;7;
47591;PMS5003;33317;33.356;-117.184;2023-01-19T05:18:53;15;15;
47591;PMS5003;33317;33.356;-117.184;2023-01-19T05:21:21;10;9;
47591;PMS5003;33317;33.356;-117.184;2023-01-19T05:23:50;12;11;
47591;PMS5003;33317;33.356;-117.184;2023-01-19T05:26:18;6;6;
47591;PMS5003;33317;33.356;-117.184;2023-01-19T05:28:46;13;9;
47591;PMS5003;33317;33.356;-117.184;2023-01-19T05:31:15;9;8;
47591;PMS5003;33317;33.356;-117.184;2023-01-19T05:33:49;9;9;
47591;PMS5003;33317;33.356;-117.184;2023-01-19T05:36:23;10;9;
47591;PMS5003;33317;33.356;-117.184;2023-01-19T05:38:52;11;11;
47591;PMS5003;33317;33.356;-117.184;2023-01-19T05:41:20;13;9;
47591;PMS5003;33317;33.356;-117.184;2023-01-19T05:43:59;9;8;
47591;PMS5003;33317;33.356;-117.184;2023-01-19T05:46:33;7;5;
47591;PMS5003;33317;33.356;-117.184;2023-01-19T05:49:08;9;9;
47591;PMS5003;33317;33.356;-117.184;2023-01-19T05:51:42;11;7;
47591;PMS5003;33317;33.356;-117.184;2023-01-19T05:54:11;7;7;
47591;PMS5003;33317;33.356;-117.184;2023-01-19T05:56:41;5;4;
47591;PMS5003;33317;33.356;-117.184;2023-01-19T05:59:10;6;6;
47591;PMS5003;33317;33.356;-117.184;2023-01-19T06:01:40;6;6;
47591;PMS5003;33317;33.356;-117.184;2023-01-19T06:04:09;6;6;
47591;PMS5003;33317;33.356;-117.184;2023-01-19T06:06:39;8;7;
47591;PMS5003;33317;33.356;-117.184;2023-01-19T06:09:08;8;7;
47591;PMS5003;33317;33.356;-117.184;2023-01-19T06:11:42;4;4;
47591;PMS5003;33317;33.356;-117.184;2023-01-19T06:14:11;8;8;
47591;PMS5003;33317;33.356;-117.184;2023-01-19T06:16:40;8;8;
47591;PMS5003;33317;33.356;-117.184;2023-01-19T06:19:08;8;7;
47591;PMS5003;33317;33.356;-117.184;2023-01-19T06:21:37;9;8;
47591;PMS5003;33317;33.356;-117.184;2023-01-19T06:24:08;8;7;
47591;PMS5003;33317;33.356;-117.184;2023-01-19T06:26:42;4;4;
47591;PMS5003;33317;33.356;-117.184;2023-01-19T06:29:12;9;7;
47591;PMS5003;33317;33.356;-117.184;2023-01-19T06:31:40;4;4;
47591;PMS5003;33317;33.356;-117.184;2023-01-19T06:34:09;7;7;
47591;PMS5003;33317;33.356;-117.184;2023-01-19T06:36:39;6;5;
47591;PMS5003;33317;33.356;-117.184;2023-01-19T06:39:08;7;7;
47591;PMS5003;33317;33.356;-117.184;2023-01-19T06:41:36;7;5;
47591;PMS5003;33317;33.356;-117.184;2023-01-19T06:44:06;7;6;
47591;PMS5003;33317;33.356;-117.184;2023-01-19T06:46:35;6;5;
47591;PMS5003;33317;33.356;-117.184;2023-01-19T06:49:04;7;7;
47591;PMS5003;33317;33.356;-117.184;2023-01-19T06:51:38;6;6;
47591;PMS5003;33317;33.356;-117.184;2023-01-19T06:54:12;6;5;
47591;PMS5003;33317;33.356;-117.184;2023-01-19T06:56:40;7;7;
47591;PMS5003;33317;33.356;-117.184;2023-01-19T06:59:08;6;4;
47591;PMS5003;33317;33.356;-117.184;2023-01-19T07:01:37;8;8;
47591;PMS5003;33317;33.356;-117.184;2023-01-19T07:04:05;9;8;
47591;PMS5003;33317;33.356;-117.184;2023-01-19T07:06:34;3;3;
47591;PMS5003;33317;33.356;-117.184;2023-01-19T07:09:03;9;9;
47591;PMS5003;33317;33.356;-117.184;2023-01-19T07:11:32;3;3;
47591;PMS5003;33317;33.356;-117.184;2023-01-19T07:14:01;5;5;
47591;PMS5003;33317;33.356;-117.184;2023-01-19T07:16:29;6;6;
47591;PMS5003;33317;33.356;-117.184;2023-01-19T07:18:58;6;5;
47591;PMS5003;33317;33.356;-117.184;2023-01-19T07:21:26;7;6;
47591;PMS5003;33317;33.356;-117.184;2023-01-19T07:23:55;5;5;
47591;PMS5003;33317;33.356;-117.184;2023-01-19T07:26:24;6;6;
47591;PMS5003;33317;33.356;-117.184;2023-01-19T07:28:53;5;5;
47591;PMS5003;33317;33.356;-117.184;2023-01-19T07:31:21;8;6;
47591;PMS5003;33317;33.356;-117.184;2023-01-19T07:33:49;5;4;
47591;PMS5003;33317;33.356;-117.184;2023-01-19T07:36:18;5;5;
47591;PMS5003;33317;33.356;-117.184;2023-01-19T07:38:46;7;6;
47591;PMS5003;33317;33.356;-117.184;2023-01-19T07:41:16;2;2;
47591;PMS5003;33317;33.356;-117.184;2023-01-19T07:43:44;5;5;
47591;PMS5003;33317;33.356;-117.184;2023-01-19T07:46:13;3;3;
47591;PMS5003;33317;33.356;-117.184;2023-01-19T07:48:41;4;3;
47591;PMS5003;33317;33.356;-117.184;2023-01-19T07:51:10;4;4;
47591;PMS5003;33317;33.356;-117.184;2023-01-19T07:53:38;4;4;
47591;PMS5003;33317;33.356;-117.184;2023-01-19T07:56:07;6;5;
47591;PMS5003;33317;33.356;-117.184;2023-01-19T07:58:36;4;4;
47591;PMS5003;33317;33.356;-117.184;2023-01-19T08:01:05;5;2;
47591;PMS5003;33317;33.356;-117.184;2023-01-19T08:03:34;5;5;
47591;PMS5003;33317;33.356;-117.184;2023-01-19T08:06:02;4;3;
47591;PMS5003;33317;33.356;-117.184;2023-01-19T08:08:32;2;2;
47591;PMS5003;33317;33.356;-117.184;2023-01-19T08:11:00;7;5;
47591;PMS5003;33317;33.356;-117.184;2023-01-19T08:13:29;3;3;
47591;PMS5003;33317;33.356;-117.184;2023-01-19T08:15:57;4;3;
47591;PMS5003;33317;33.356;-117.184;2023-01-19T08:18:25;3;3;
47591;PMS5003;33317;33.356;-117.184;2023-01-19T08:20:53;5;2;
47591;PMS5003;33317;33.356;-117.184;2023-01-19T08:23:24;3;3;
47591;PMS5003;33317;33.356;-117.184;2023-01-19T08:25:53;5;4;
47591;PMS5003;33317;33.356;-117.184;2023-01-19T08:28:21;1;1;
47591;PMS5003;33317;33.356;-117.184;2023-01-19T08:30:50;3;2;
47591;PMS5003;33317;33.356;-117.184;2023-01-19T08:33:19;4;4;
47591;PMS5003;33317;33.356;-117.184;2023-01-19T08:35:49;5;3;
47591;PMS5003;33317;33.356;-117.184;2023-01-19T08:38:18;2;2;
47591;PMS5003;33317;33.356;-117.184;2023-01-19T08:40:47;5;5;
47591;PMS5003;33317;33.356;-117.184;2023-01-19T08:43:15;4;4;
47591;PMS5003;33317;33.356;-117.184;2023-01-19T08:45:44;4;4;
47591;PMS5003;33317;33.356;-117.184;2023-01-19T08:48:19;4;3;
47591;PMS5003;33317;33.356;-117.184;2023-01-19T08:50:49;3;3;
47591;PMS5003;33317;33.356;-117.184;2023-01-19T08:53:18;4;4;
47591;PMS5003;33317;33.356;-117.184;2023-01-19T08:55:48;2;2;
47591;PMS5003;33317;33.356;-117.184;2023-01-19T08:58:16;3;3;
47591;PMS5003;33317;33.356;-117.184;2023-01-19T09:00:45;1;1;
47591;PMS5003;33317;33.356;-117.184;2023-01-19T09:03:13;1;1;
47591;PMS5003;33317;33.356;-117.184;2023-01-19T09:05:42;2;2;
47591;PMS5003;33317;33.356;-117.184;2023-01-19T09:08:11;2;2;
47591;PMS5003;33317;33.356;-117.184;2023-01-19T09:10:44;3;3;
47591;PMS5003;33317;33.356;-117.184;2023-01-19T09:13:14;2;2;
47591;PMS5003;33317;33.356;-117.184;2023-01-19T09:15:44;3;3;
47591;PMS5003;33317;33.356;-117.184;2023-01-19T09:18:14;1;1;
47591;PMS5003;33317;33.356;-117.184;2023-01-19T09:20:45;3;3;
47591;PMS5003;33317;33.356;-117.184;2023-01-19T09:23:15;3;2;
47591;PMS5003;33317;33.356;-117.184;2023-01-19T09:25:45;2;2;
47591;PMS5003;33317;33.356;-117.184;2023-01-19T09:28:14;2;2;
47591;PMS5003;33317;33.356;-117.184;2023-01-19T09:30:43;4;4;
47591;PMS5003;33317;33.356;-117.184;2023-01-19T09:33:12;3;3;
47591;PMS5003;33317;33.356;-117.184;2023-01-19T09:35:43;1;1;
47591;PMS5003;33317;33.356;-117.184;2023-01-19T09:38:14;2;2;
47591;PMS5003;33317;33.356;-117.184;2023-01-19T09:40:47;1;1;
47591;PMS5003;33317;33.356;-117.184;2023-01-19T09:43:20;2;2;
47591;PMS5003;33317;33.356;-117.184;2023-01-19T09:45:59;4;2;
47591;PMS5003;33317;33.356;-117.184;2023-01-19T09:48:31;4;4;
47591;PMS5003;33317;33.356;-117.184;2023-01-19T09:51:09;2;2;
47591;PMS5003;33317;33.356;-117.184;2023-01-19T09:53:46;2;2;
47591;PMS5003;33317;33.356;-117.184;2023-01-19T09:56:20;4;4;
47591;PMS5003;33317;33.356;-117.184;2023-01-19T09:58:50;3;3;
47591;PMS5003;33317;33.356;-117.184;2023-01-19T10:01:23;5;4;
47591;PMS5003;33317;33.356;-117.184;2023-01-19T10:04:06;2;2;
47591;PMS5003;33317;33.356;-117.184;2023-01-19T10:06:54;3;1;
47591;PMS5003;33317;33.356;-117.184;2023-01-19T10:09:33;3;3;
47591;PMS5003;33317;33.356;-117.184;2023-01-19T10:12:13;3;3;
47591;PMS5003;33317;33.356;-117.184;2023-01-19T10:14:51;2;2;
47591;PMS5003;33317;33.356;-117.184;2023-01-19T10:17:30;1;1;
47591;PMS5003;33317;33.356;-117.184;2023-01-19T10:20:10;2;2;
47591;PMS5003;33317;33.356;-117.184;2023-01-19T10:22:46;4;3;
47591;PMS5003;33317;33.356;-117.184;2023-01-19T10:25:17;2;2;
47591;PMS5003;33317;33.356;-117.184;2023-01-19T10:27:47;2;2;
47591;PMS5003;33317;33.356;-117.184;2023-01-19T10:30:17;4;3;
47591;PMS5003;33317;33.356;-117.184;2023-01-19T10:32:49;4;3;
47591;PMS5003;33317;33.356;-117.184;2023-01-19T10:35:20;2;2;
47591;PMS5003;33317;33.356;-117.184;2023-01-19T10:37:50;2;2;
47591;PMS5003;33317;33.356;-117.184;2023-01-19T10:40:25;3;1;
47591;PMS5003;33317;33.356;-117.184;2023-01-19T10:42:59;2;2;
47591;PMS5003;33317;33.356;-117.184;2023-01-19T10:45:28;3;3;
47591;PMS5003;33317;33.356;-117.184;2023-01-19T10:47:59;1;1;
47591;PMS5003;33317;33.356;-117.184;2023-01-19T10:50:33;2;2;
47591;PMS5003;33317;33.356;-117.184;2023-01-19T10:53:04;2;1;
47591;PMS5003;33317;33.356;-117.184;2023-01-19T10:55:43;2;2;
47591;PMS5003;33317;33.356;-117.184;2023-01-19T10:58:25;2;2;
47591;PMS5003;33317;33.356;-117.184;2023-01-19T11:00:54;3;3;
47591;PMS5003;33317;33.356;-117.184;2023-01-19T11:03:41;3;3;
47591;PMS5003;33317;33.356;-117.184;2023-01-19T11:06:26;0;0;
47591;PMS5003;33317;33.356;-117.184;2023-01-19T11:09:09;2;2;
47591;PMS5003;33317;33.356;-117.184;2023-01-19T11:11:42;1;1;
47591;PMS5003;33317;33.356;-117.184;2023-01-19T11:14:13;1;1;
47591;PMS5003;33317;33.356;-117.184;2023-01-19T11:16:47;2;2;
47591;PMS5003;33317;33.356;-117.184;2023-01-19T11:19:20;1;1;
47591;PMS5003;33317;33.356;-117.184;2023-01-19T11:21:53;1;1;
47591;PMS5003;33317;33.356;-117.184;2023-01-19T11:24:37;1;1;
47591;PMS5003;33317;33.356;-117.184;2023-01-19T11:27:06;0;0;
47591;PMS5003;33317;33.356;-117.184;2023-01-19T11:29:34;1;1;
47591;PMS5003;33317;33.356;-117.184;2023-01-19T11:32:09;2;2;
47591;PMS5003;33317;33.356;-117.184;2023-01-19T11:34:45;3;1;
47591;PMS5003;33317;33.356;-117.184;2023-01-19T11:37:30;1;1;
47591;PMS5003;33317;33.356;-117.184;2023-01-19T11:39:59;2;2;
47591;PMS5003;33317;33.356;-117.184;2023-01-19T11:42:33;1;1;
47591;PMS5003;33317;33.356;-117.184;2023-01-19T11:45:05;4;2;
47591;PMS5003;33317;33.356;-117.184;2023-01-19T11:47:40;2;2;
47591;PMS5003;33317;33.356;-117.184;2023-01-19T11:50:13;1;1;
47591;PMS5003;33317;33.356;-117.184;2023-01-19T11:52:49;2;2;
47591;PMS5003;33317;33.356;-117.184;2023-01-19T11:55:24;1;1;
47591;PMS5003;33317;33.356;-117.184;2023-01-19T11:57:59;1;1;
47591;PMS5003;33317;33.356;-117.184;2023-01-19T12:00:32;2;2;
47591;PMS5003;33317;33.356;-117.184;2023-01-19T12:03:05;1;1;
47591;PMS5003;33317;33.356;-117.184;2023-01-19T12:05:42;2;2;
47591;PMS5003;33317;33.356;-117.184;2023-01-19T12:08:15;1;1;
47591;PMS5003;33317;33.356;-117.184;2023-01-19T12:10:47;1;1;
47591;PMS5003;33317;33.356;-117.184;2023-01-19T12:13:20;1;0;
47591;PMS5003;33317;33.356;-117.184;2023-01-19T12:15:50;2;2;
47591;PMS5003;33317;33.356;-117.184;2023-01-19T12:18:23;2;2;
47591;PMS5003;33317;33.356;-117.184;2023-01-19T12:20:56;0;0;
47591;PMS5003;33317;33.356;-117.184;2023-01-19T12:23:28;0;0;
47591;PMS5003;33317;33.356;-117.184;2023-01-19T12:26:12;3;1;
47591;PMS5003;33317;33.356;-117.184;2023-01-19T12:28:55;1;1;
47591;PMS5003;33317;33.356;-117.184;2023-01-19T12:31:27;3;3;
47591;PMS5003;33317;33.356;-117.184;2023-01-19T12:34:05;1;1;
47591;PMS5003;33317;33.356;-117.184;2023-01-19T12:36:57;4;2;
47591;PMS5003;33317;33.356;-117.184;2023-01-19T12:39:28;3;3;
47591;PMS5003;33317;33.356;-117.184;2023-01-19T12:42:10;1;0;
47591;PMS5003;33317;33.356;-117.184;2023-01-19T12:44:41;2;0;
47591;PMS5003;33317;33.356;-117.184;2023-01-19T12:47:19;3;3;
47591;PMS5003;33317;33.356;-117.184;2023-01-19T12:49:49;0;0;
47591;PMS5003;33317;33.356;-117.184;2023-01-19T12:52:26;2;2;
47591;PMS5003;33317;33.356;-117.184;2023-01-19T12:55:05;2;2;
47591;PMS5003;33317;33.356;-117.184;2023-01-19T12:57:46;1;1;
47591;PMS5003;33317;33.356;-117.184;2023-01-19T13:00:27;2;2;
47591;PMS5003;33317;33.356;-117.184;2023-01-19T13:02:59;2;1;
47591;PMS5003;33317;33.356;-117.184;2023-01-19T13:05:47;2;1;
47591;PMS5003;33317;33.356;-117.184;2023-01-19T13:08:19;3;2;
47591;PMS5003;33317;33.356;-117.184;2023-01-19T13:11:12;1;1;
47591;PMS5003;33317;33.356;-117.184;2023-01-19T13:13:44;1;1;
47591;PMS5003;33317;33.356;-117.184;2023-01-19T13:14:37;1;1;
47591;PMS5003;33317;33.356;-117.184;2023-01-19T13:17:44;0;0;
47591;PMS5003;33317;33.356;-117.184;2023-01-19T13:20:22;2;2;
47591;PMS5003;33317;33.356;-117.184;2023-01-19T13:23:14;1;1;
47591;PMS5003;33317;33.356;-117.184;2023-01-19T13:25:57;2;2;
47591;PMS5003;33317;33.356;-117.184;2023-01-19T13:28:31;1;1;
47591;PMS5003;33317;33.356;-117.184;2023-01-19T13:31:07;1;1;
47591;PMS5003;33317;33.356;-117.184;2023-01-19T13:33:38;0;0;
47591;PMS5003;33317;33.356;-117.184;2023-01-19T13:36:18;3;2;
47591;PMS5003;33317;33.356;-117.184;2023-01-19T13:38:51;0;0;
47591;PMS5003;33317;33.356;-117.184;2023-01-19T13:41:22;4;3;
47591;PMS5003;33317;33.356;-117.184;2023-01-19T13:44:00;2;2;
47591;PMS5003;33317;33.356;-117.184;2023-01-19T13:46:31;2;1;
47591;PMS5003;33317;33.356;-117.184;2023-01-19T13:49:01;2;2;
47591;PMS5003;33317;33.356;-117.184;2023-01-19T13:51:37;2;2;
47591;PMS5003;33317;33.356;-117.184;2023-01-19T13:54:13;2;1;
47591;PMS5003;33317;33.356;-117.184;2023-01-19T13:56:46;1;1;
47591;PMS5003;33317;33.356;-117.184;2023-01-19T13:59:14;1;1;
47591;PMS5003;33317;33.356;-117.184;2023-01-19T14:01:44;2;2;
47591;PMS5003;33317;33.356;-117.184;2023-01-19T14:04:29;2;2;
47591;PMS5003;33317;33.356;-117.184;2023-01-19T14:06:59;2;1;
47591;PMS5003;33317;33.356;-117.184;2023-01-19T14:09:31;1;1;
47591;PMS5003;33317;33.356;-117.184;2023-01-19T14:12:09;1;1;
47591;PMS5003;33317;33.356;-117.184;2023-01-19T14:14:40;1;1;
47591;PMS5003;33317;33.356;-117.184;2023-01-19T14:17:18;1;1;
47591;PMS5003;33317;33.356;-117.184;2023-01-19T14:19:50;2;2;
47591;PMS5003;33317;33.356;-117.184;2023-01-19T14:22:20;1;1;
47591;PMS5003;33317;33.356;-117.184;2023-01-19T14:25:20;2;1;
47591;PMS5003;33317;33.356;-117.184;2023-01-19T14:28:25;0;0;
47591;PMS5003;33317;33.356;-117.184;2023-01-19T14:30:55;1;1;
47591;PMS5003;33317;33.356;-117.184;2023-01-19T14:33:32;0;0;
47591;PMS5003;33317;33.356;-117.184;2023-01-19T14:36:10;2;2;
47591;PMS5003;33317;33.356;-117.184;2023-01-19T14:38:55;1;1;
47591;PMS5003;33317;33.356;-117.184;2023-01-19T14:41:26;2;2;
47591;PMS5003;33317;33.356;-117.184;2023-01-19T14:44:06;1;1;
47591;PMS5003;33317;33.356;-117.184;2023-01-19T14:46:36;0;0;
47591;PMS5003;33317;33.356;-117.184;2023-01-19T14:49:15;0;0;
47591;PMS5003;33317;33.356;-117.184;2023-01-19T14:51:46;3;2;
47591;PMS5003;33317;33.356;-117.184;2023-01-19T14:54:16;1;1;
47591;PMS5003;33317;33.356;-117.184;2023-01-19T14:56:52;1;1;
47591;PMS5003;33317;33.356;-117.184;2023-01-19T14:59:20;0;0;
47591;PMS5003;33317;33.356;-117.184;2023-01-19T15:01:49;0;0;
47591;PMS5003;33317;33.356;-117.184;2023-01-19T15:04:18;4;4;
47591;PMS5003;33317;33.356;-117.184;2023-01-19T15:06:47;2;2;
47591;PMS5003;33317;33.356;-117.184;2023-01-19T15:09:16;0;0;
47591;PMS5003;33317;33.356;-117.184;2023-01-19T15:11:45;0;0;
47591;PMS5003;33317;33.356;-117.184;2023-01-19T15:14:16;1;1;
47591;PMS5003;33317;33.356;-117.184;2023-01-19T15:16:46;0;0;
47591;PMS5003;33317;33.356;-117.184;2023-01-19T15:19:15;0;0;
47591;PMS5003;33317;33.356;-117.184;2023-01-19T15:21:44;1;1;
47591;PMS5003;33317;33.356;-117.184;2023-01-19T15:24:13;1;0;
47591;PMS5003;33317;33.356;-117.184;2023-01-19T15:26:41;1;1;
47591;PMS5003;33317;33.356;-117.184;2023-01-19T15:29:12;1;1;
47591;PMS5003;33317;33.356;-117.184;2023-01-19T15:31:46;0;0;
47591;PMS5003;33317;33.356;-117.184;2023-01-19T15:34:15;0;0;
47591;PMS5003;33317;33.356;-117.184;2023-01-19T15:36:43;1;1;
47591;PMS5003;33317;33.356;-117.184;2023-01-19T15:39:12;0;0;
47591;PMS5003;33317;33.356;-117.184;2023-01-19T15:41:40;1;1;
47591;PMS5003;33317;33.356;-117.184;2023-01-19T15:44:09;0;0;
47591;PMS5003;33317;33.356;-117.184;2023-01-19T15:46:38;0;0;
47591;PMS5003;33317;33.356;-117.184;2023-01-19T15:49:07;1;1;
47591;PMS5003;33317;33.356;-117.184;2023-01-19T15:51:36;1;1;
47591;PMS5003;33317;33.356;-117.184;2023-01-19T15:54:10;3;1;
47591;PMS5003;33317;33.356;-117.184;2023-01-19T15:56:39;1;1;
47591;PMS5003;33317;33.356;-117.184;2023-01-19T15:59:09;0;0;
47591;PMS5003;33317;33.356;-117.184;2023-01-19T16:01:38;0;0;
47591;PMS5003;33317;33.356;-117.184;2023-01-19T16:04:07;0;0;
47591;PMS5003;33317;33.356;-117.184;2023-01-19T16:06:36;0;0;
47591;PMS5003;33317;33.356;-117.184;2023-01-19T16:09:05;1;1;
47591;PMS5003;33317;33.356;-117.184;2023-01-19T16:11:33;1;1;
47591;PMS5003;33317;33.356;-117.184;2023-01-19T16:14:02;0;0;
47591;PMS5003;33317;33.356;-117.184;2023-01-19T16:16:30;1;1;
47591;PMS5003;33317;33.356;-117.184;2023-01-19T16:18:59;0;0;
47591;PMS5003;33317;33.356;-117.184;2023-01-19T16:21:27;0;0;
47591;PMS5003;33317;33.356;-117.184;2023-01-19T16:23:56;1;1;
47591;PMS5003;33317;33.356;-117.184;2023-01-19T16:26:25;0;0;
47591;PMS5003;33317;33.356;-117.184;2023-01-19T16:28:57;1;1;